Time;durP1;ratioP1;P1;durP2;ratioP2;P2;SDS_P1;SDS_P2;PMS_P1;PMS_P2;Temp;Humidity;BMP_temperature;BMP_pressure;BME280_temperature;BME280_humidity;BME280_pressure;Samples;Min_cycle;Max_cycle;Signal;HPM_P1;HPM_P2
2024/01/02 00:02:35;;;;;;;4.70;4.40;;;6.20;74.20;;;;;;6295941;28;20240;-81
2024/01/02 00:05:38;;;;;;;4.67;4.00;;;6.30;74.10;;;;;;6302576;28;20341;-82
2024/01/02 00:08:43;;;;;;;5.23;4.77;;;6.20;74.00;;;;;;6294401;28;20236;-81
2024/01/02 00:11:46;;;;;;;4.63;4.40;;;6.20;74.50;;;;;;6303780;28;20236;-81
2024/01/02 00:14:49;;;;;;;4.53;4.10;;;6.10;74.80;;;;;;6292438;28;20241;-80
2024/01/02 00:17:52;;;;;;;4.30;4.10;;;6.10;75.00;;;;;;6294547;28;20241;-81
2024/01/02 00:20:56;;;;;;;5.60;4.57;;;6.10;75.10;;;;;;6301320;28;20743;-80
2024/01/02 00:24:02;;;;;;;4.03;3.80;;;6.00;75.40;;;;;;6300073;28;20379;-81
2024/01/02 00:27:06;;;;;;;4.93;4.60;;;6.00;75.40;;;;;;6301996;28;20220;-80
2024/01/02 00:30:10;;;;;;;4.47;4.10;;;6.00;75.70;;;;;;6299280;28;20339;-80
2024/01/02 00:33:13;;;;;;;5.23;4.83;;;6.00;76.00;;;;;;6299545;28;20721;-81
2024/01/02 00:36:17;;;;;;;4.70;4.30;;;5.90;76.40;;;;;;6302235;28;20228;-79
2024/01/02 00:39:21;;;;;;;5.73;4.60;;;5.80;76.70;;;;;;6293245;28;20251;-76
2024/01/02 00:42:24;;;;;;;4.40;4.10;;;5.80;76.90;;;;;;6291410;28;20370;-79
2024/01/02 00:45:27;;;;;;;5.10;4.60;;;5.80;76.90;;;;;;6289257;28;20764;-80
2024/01/02 00:48:31;;;;;;;5.03;4.53;;;5.80;76.80;;;;;;6296166;28;20236;-79
2024/01/02 00:51:34;;;;;;;5.53;4.27;;;5.80;77.00;;;;;;6300549;28;20268;-81
2024/01/02 00:54:39;;;;;;;4.20;4.00;;;5.80;76.90;;;;;;6303084;28;20239;-78
2024/01/02 00:57:42;;;;;;;4.93;4.63;;;5.80;77.10;;;;;;6299245;28;20260;-81
2024/01/02 01:00:48;;;;;;;5.23;4.23;;;5.80;77.30;;;;;;6292952;28;20233;-80
2024/01/02 01:03:52;;;;;;;4.53;4.13;;;5.70;77.30;;;;;;6299852;28;20236;-81
2024/01/02 01:06:55;;;;;;;4.23;3.93;;;5.70;77.20;;;;;;6308440;28;20224;-80
2024/01/02 01:09:59;;;;;;;5.30;4.77;;;5.80;77.20;;;;;;6301552;28;20313;-80
2024/01/02 01:13:03;;;;;;;4.30;4.03;;;5.90;76.70;;;;;;6314669;28;23261;-81
2024/01/02 01:16:07;;;;;;;4.50;4.23;;;5.80;76.80;;;;;;6312774;28;20241;-80
2024/01/02 01:19:10;;;;;;;4.63;4.33;;;5.90;76.50;;;;;;6292039;28;20244;-80
2024/01/02 01:22:13;;;;;;;5.03;4.63;;;5.80;76.40;;;;;;6314544;28;20743;-80
2024/01/02 01:25:17;;;;;;;6.77;4.00;;;5.80;76.50;;;;;;6298283;28;20264;-79
2024/01/02 01:28:20;;;;;;;4.77;4.27;;;5.80;76.30;;;;;;6300443;28;20699;-81
2024/01/02 01:31:24;;;;;;;4.57;4.17;;;5.70;76.60;;;;;;6311410;28;20744;-79
2024/01/02 01:34:27;;;;;;;7.37;4.77;;;5.60;76.60;;;;;;6314829;28;20675;-81
2024/01/02 01:37:30;;;;;;;5.10;4.73;;;5.50;76.80;;;;;;6293417;28;20257;-80
2024/01/02 01:40:35;;;;;;;5.10;4.50;;;5.50;76.60;;;;;;6294800;28;20225;-77
2024/01/02 01:43:38;;;;;;;6.40;4.73;;;5.50;76.60;;;;;;6307423;28;20234;-80
2024/01/02 01:46:42;;;;;;;9.30;4.77;;;5.50;76.50;;;;;;6295016;28;20236;-80
2024/01/02 01:49:45;;;;;;;5.47;4.10;;;5.50;76.50;;;;;;6312765;28;20937;-81
2024/01/02 01:52:48;;;;;;;4.87;4.57;;;5.40;76.60;;;;;;6305832;28;20306;-82
2024/01/02 01:55:52;;;;;;;8.07;5.20;;;5.40;76.80;;;;;;6305160;28;20279;-77
2024/01/02 01:58:56;;;;;;;5.83;4.50;;;5.30;77.00;;;;;;6306021;28;20319;-79
2024/01/02 02:02:02;;;;;;;7.23;4.63;;;5.20;77.10;;;;;;6313715;28;20228;-80
2024/01/02 02:05:06;;;;;;;5.17;4.43;;;5.10;77.10;;;;;;6305184;28;20890;-81
2024/01/02 02:08:09;;;;;;;5.00;4.00;;;5.10;77.30;;;;;;6286829;28;20232;-78
2024/01/02 02:11:15;;;;;;;9.30;4.17;;;5.00;77.30;;;;;;6308583;28;20263;-80
2024/01/02 02:14:19;;;;;;;8.20;4.47;;;5.00;77.20;;;;;;6307309;28;20237;-82
2024/01/02 02:17:22;;;;;;;6.77;4.30;;;5.00;77.20;;;;;;6300983;28;20749;-79
2024/01/02 02:20:25;;;;;;;6.20;4.97;;;4.90;77.20;;;;;;6308947;28;20240;-81
2024/01/02 02:23:29;;;;;;;7.77;4.87;;;5.00;77.30;;;;;;6303682;28;20777;-80
2024/01/02 02:26:33;;;;;;;7.80;4.73;;;4.90;77.20;;;;;;6299976;28;20839;-81
2024/01/02 02:29:36;;;;;;;7.40;4.73;;;4.70;77.70;;;;;;6301732;28;20262;-80
2024/01/02 02:32:39;;;;;;;6.90;4.63;;;4.60;77.90;;;;;;6301512;28;20229;-78
2024/01/02 02:35:42;;;;;;;9.40;4.97;;;4.60;77.80;;;;;;6306630;28;20237;-82
2024/01/02 02:38:47;;;;;;;6.77;4.20;;;4.50;77.90;;;;;;6302503;28;20636;-81
2024/01/02 02:41:50;;;;;;;4.80;4.40;;;4.60;77.70;;;;;;6300154;28;20244;-83
2024/01/02 02:44:53;;;;;;;5.67;4.23;;;4.50;77.70;;;;;;6310692;28;20784;-78
2024/01/02 02:47:56;;;;;;;11.17;5.17;;;4.50;77.70;;;;;;6288602;28;20310;-80
2024/01/02 02:50:59;;;;;;;8.57;4.63;;;4.40;78.00;;;;;;6304264;28;20225;-80
2024/01/02 02:54:04;;;;;;;10.30;4.50;;;4.30;78.20;;;;;;6297997;28;20359;-80
2024/01/02 02:57:07;;;;;;;13.00;5.93;;;4.30;78.00;;;;;;6295180;28;20280;-82
2024/01/02 03:00:12;;;;;;;10.07;4.93;;;4.30;78.10;;;;;;6304853;28;20243;-81
2024/01/02 03:03:15;;;;;;;6.97;4.60;;;4.30;78.20;;;;;;6296788;28;20772;-81
2024/01/02 03:06:18;;;;;;;7.93;4.83;;;4.20;78.00;;;;;;6303859;28;20772;-81
2024/01/02 03:09:23;;;;;;;7.83;4.80;;;4.20;78.20;;;;;;6290648;28;20681;-80
2024/01/02 03:12:26;;;;;;;9.60;4.97;;;4.20;78.40;;;;;;6293765;28;20245;-80
2024/01/02 03:15:29;;;;;;;11.03;4.87;;;4.10;78.50;;;;;;6299646;28;20241;-81
2024/01/02 03:18:32;;;;;;;8.40;4.30;;;4.20;78.50;;;;;;6298492;28;20807;-79
2024/01/02 03:21:36;;;;;;;10.73;4.80;;;4.10;78.50;;;;;;6296083;28;20367;-81
2024/01/02 03:24:40;;;;;;;11.97;5.40;;;4.00;78.60;;;;;;6296333;28;20261;-80
2024/01/02 03:27:43;;;;;;;12.60;5.97;;;4.00;78.90;;;;;;6306936;28;20756;-80
2024/01/02 03:30:46;;;;;;;8.43;5.33;;;3.90;79.20;;;;;;6301100;28;20241;-81
2024/01/02 03:33:50;;;;;;;9.33;5.67;;;3.90;79.20;;;;;;6303574;28;20248;-80
2024/01/02 03:36:53;;;;;;;6.57;5.20;;;3.80;79.50;;;;;;6302839;28;20233;-81
2024/01/02 03:39:57;;;;;;;11.80;4.87;;;3.80;79.50;;;;;;6277979;28;20740;-81
2024/01/02 03:43:00;;;;;;;7.47;5.10;;;3.80;79.50;;;;;;6290308;28;20254;-81
2024/01/02 03:46:04;;;;;;;12.77;5.67;;;3.80;79.30;;;;;;6303559;28;20619;-78
2024/01/02 03:49:07;;;;;;;9.87;5.30;;;3.70;79.70;;;;;;6310862;28;20224;-81
2024/01/02 03:52:10;;;;;;;11.03;5.77;;;3.70;79.80;;;;;;6288262;28;20263;-80
2024/01/02 03:55:15;;;;;;;10.33;5.67;;;3.70;80.00;;;;;;6303778;28;20240;-80
2024/01/02 03:58:18;;;;;;;12.10;5.97;;;3.60;80.00;;;;;;6303624;28;20564;-82
2024/01/02 04:01:21;;;;;;;16.87;7.20;;;3.60;80.00;;;;;;6314648;28;20272;-78
2024/01/02 04:04:24;;;;;;;7.43;5.40;;;3.50;80.10;;;;;;6298629;28;20790;-80
2024/01/02 04:07:28;;;;;;;11.73;5.23;;;3.50;80.30;;;;;;6301866;28;20271;-79
2024/01/02 04:10:32;;;;;;;14.30;6.07;;;3.50;80.00;;;;;;6299114;28;20235;-81
2024/01/02 04:13:35;;;;;;;9.20;5.90;;;3.50;80.10;;;;;;6298812;28;20229;-80
2024/01/02 04:16:38;;;;;;;10.13;5.47;;;3.50;80.20;;;;;;6301397;28;20225;-79
2024/01/02 04:19:41;;;;;;;8.80;5.33;;;3.50;80.00;;;;;;6298601;28;20300;-80
2024/01/02 04:22:45;;;;;;;9.10;5.30;;;3.40;80.20;;;;;;6293796;28;20229;-79
2024/01/02 04:25:49;;;;;;;5.90;4.77;;;3.50;80.10;;;;;;6289317;28;20229;-80
2024/01/02 04:28:52;;;;;;;6.37;5.13;;;3.40;80.20;;;;;;6298179;28;20237;-81
2024/01/02 04:31:55;;;;;;;17.20;5.97;;;3.30;80.30;;;;;;6300767;28;20388;-79
2024/01/02 04:34:59;;;;;;;10.43;5.37;;;3.40;80.30;;;;;;6297256;28;20261;-80
2024/01/02 04:38:03;;;;;;;9.30;5.53;;;3.50;80.00;;;;;;6299252;28;20256;-79
2024/01/02 04:41:07;;;;;;;8.23;5.77;;;3.50;80.10;;;;;;6299135;28;20371;-78
2024/01/02 04:44:12;;;;;;;9.87;6.13;;;3.50;80.10;;;;;;6299813;28;20239;-79
2024/01/02 04:47:15;;;;;;;14.63;7.77;;;3.50;79.90;;;;;;6308479;28;20324;-80
2024/01/02 04:50:19;;;;;;;15.13;7.97;;;3.50;79.70;;;;;;6308795;28;20273;-81
2024/01/02 04:53:22;;;;;;;15.27;8.07;;;3.40;80.10;;;;;;6300938;28;20248;-79
2024/01/02 04:56:26;;;;;;;11.57;6.90;;;3.40;80.10;;;;;;6308950;28;20282;-80
2024/01/02 04:59:29;;;;;;;8.87;6.27;;;3.40;80.00;;;;;;6294665;28;20237;-80
2024/01/02 05:02:33;;;;;;;11.50;6.40;;;3.30;80.30;;;;;;6295386;28;20233;-80
2024/01/02 05:05:36;;;;;;;15.60;6.47;;;3.30;80.40;;;;;;6305873;28;20240;-80
2024/01/02 05:08:39;;;;;;;15.10;5.33;;;3.30;80.50;;;;;;6308783;28;20225;-77
2024/01/02 05:11:45;;;;;;;9.03;4.97;;;3.30;80.40;;;;;;6308254;28;20233;-80
2024/01/02 05:14:49;;;;;;;12.10;5.33;;;3.30;80.40;;;;;;6309326;28;20586;-77
2024/01/02 05:17:52;;;;;;;10.13;5.30;;;3.30;80.40;;;;;;6305211;28;20225;-80
2024/01/02 05:20:56;;;;;;;7.80;5.67;;;3.30;80.40;;;;;;6298619;28;20220;-80
2024/01/02 05:24:00;;;;;;;9.33;4.90;;;3.30;80.30;;;;;;6294464;28;20317;-80
2024/01/02 05:27:05;;;;;;;7.00;5.30;;;3.30;80.20;;;;;;6302721;28;20775;-80
2024/01/02 05:30:09;;;;;;;6.83;5.17;;;3.30;80.30;;;;;;6292194;28;20237;-81
2024/01/02 05:33:14;;;;;;;10.33;5.07;;;3.30;80.30;;;;;;6298806;28;20325;-79
2024/01/02 05:36:17;;;;;;;9.83;5.23;;;3.30;80.20;;;;;;6308376;28;20229;-79
2024/01/02 05:39:20;;;;;;;9.20;5.27;;;3.10;80.50;;;;;;6309527;28;20228;-80
2024/01/02 05:42:25;;;;;;;10.53;5.70;;;3.10;80.50;;;;;;6304135;28;20240;-79
2024/01/02 05:45:28;;;;;;;5.20;4.70;;;3.10;80.70;;;;;;6311105;28;20885;-78
2024/01/02 05:48:31;;;;;;;7.27;5.20;;;3.10;80.70;;;;;;6303870;28;20236;-80
2024/01/02 05:51:34;;;;;;;12.87;6.33;;;3.10;80.80;;;;;;6308610;28;20232;-81
2024/01/02 05:54:37;;;;;;;13.80;5.50;;;3.10;80.70;;;;;;6307513;28;20236;-80
2024/01/02 05:57:42;;;;;;;14.07;5.03;;;3.10;80.70;;;;;;6313604;28;20709;-81
2024/01/02 06:00:45;;;;;;;9.23;5.27;;;3.10;80.70;;;;;;6296806;28;20397;-80
2024/01/02 06:03:48;;;;;;;9.67;5.33;;;3.20;80.70;;;;;;6303235;28;20233;-79
2024/01/02 06:06:52;;;;;;;9.30;4.87;;;3.20;80.50;;;;;;6308377;28;20277;-79
2024/01/02 06:09:55;;;;;;;5.43;4.77;;;3.20;80.60;;;;;;6303327;28;20309;-77
2024/01/02 06:13:00;;;;;;;7.57;5.10;;;3.20;80.50;;;;;;6301021;28;20237;-81
2024/01/02 06:16:03;;;;;;;11.03;5.13;;;3.30;80.50;;;;;;6297402;28;20233;-80
2024/01/02 06:19:06;;;;;;;9.07;5.73;;;3.30;80.40;;;;;;6312096;28;20731;-79
2024/01/02 06:22:09;;;;;;;7.43;5.30;;;3.30;80.10;;;;;;6311806;28;20239;-79
2024/01/02 06:25:13;;;;;;;8.00;5.33;;;3.30;80.30;;;;;;6302127;28;20239;-79
2024/01/02 06:28:17;;;;;;;8.30;5.13;;;3.30;80.30;;;;;;6301404;28;20849;-79
2024/01/02 06:31:21;;;;;;;8.87;5.83;;;3.30;80.30;;;;;;6303490;28;20245;-78
2024/01/02 06:34:24;;;;;;;7.57;5.40;;;3.30;80.50;;;;;;6306731;28;20252;-80
2024/01/02 06:37:27;;;;;;;10.43;5.37;;;3.20;80.40;;;;;;6298780;28;20237;-77
2024/01/02 06:40:30;;;;;;;12.33;5.67;;;3.20;80.40;;;;;;6307922;28;20243;-75
2024/01/02 06:43:35;;;;;;;13.93;5.40;;;3.30;80.30;;;;;;6307802;28;20240;-74
2024/01/02 06:46:38;;;;;;;9.93;5.60;;;3.30;80.20;;;;;;6301065;28;20582;-75
2024/01/02 06:49:41;;;;;;;5.40;4.97;;;3.30;79.90;;;;;;6294566;28;20228;-77
2024/01/02 06:52:44;;;;;;;6.63;5.47;;;3.30;80.00;;;;;;6299895;28;20225;-74
2024/01/02 06:55:47;;;;;;;6.10;5.57;;;3.30;80.00;;;;;;6277293;28;20853;-74
2024/01/02 06:58:52;;;;;;;7.70;5.17;;;3.30;80.20;;;;;;6307832;28;20236;-78
2024/01/02 07:02:00;;;;;;;7.20;4.97;;;3.30;80.20;;;;;;6309450;28;20320;-73
2024/01/02 07:05:04;;;;;;;8.40;5.63;;;3.30;80.30;;;;;;6299246;28;20232;-76
2024/01/02 07:08:07;;;;;;;10.70;5.67;;;3.30;80.30;;;;;;6298608;28;20233;-75
2024/01/02 07:11:11;;;;;;;8.60;5.70;;;3.40;80.10;;;;;;6310419;28;20702;-74
2024/01/02 07:14:16;;;;;;;8.23;5.43;;;3.50;80.00;;;;;;6309771;28;20236;-75
2024/01/02 07:17:21;;;;;;;8.93;4.67;;;3.50;79.90;;;;;;6305947;28;20283;-75
2024/01/02 07:20:24;;;;;;;6.93;5.20;;;3.50;79.80;;;;;;6294704;28;20904;-75
2024/01/02 07:23:27;;;;;;;6.43;4.93;;;3.50;79.70;;;;;;6301367;28;20748;-75
2024/01/02 07:26:30;;;;;;;5.73;4.97;;;3.50;79.70;;;;;;6292445;28;20236;-74
2024/01/02 07:29:35;;;;;;;8.87;5.60;;;3.50;79.70;;;;;;6307347;28;20236;-75
2024/01/02 07:32:39;;;;;;;9.03;5.30;;;3.50;79.70;;;;;;6305633;28;20323;-75
2024/01/02 07:35:42;;;;;;;6.07;4.87;;;3.50;79.60;;;;;;6293911;28;20321;-75
2024/01/02 07:38:45;;;;;;;6.77;5.40;;;3.60;79.60;;;;;;6300396;28;20258;-75
2024/01/02 07:41:48;;;;;;;7.83;5.07;;;3.60;79.60;;;;;;6287110;28;20897;-75
2024/01/02 07:44:53;;;;;;;7.47;5.37;;;3.60;79.60;;;;;;6302924;28;20228;-78
2024/01/02 07:47:56;;;;;;;5.30;4.83;;;3.60;79.50;;;;;;6310829;28;20240;-77
2024/01/02 07:50:59;;;;;;;7.27;6.00;;;3.60;79.60;;;;;;6300892;28;20226;-75
2024/01/02 07:54:02;;;;;;;6.27;5.60;;;3.60;79.70;;;;;;6292674;28;20641;-74
2024/01/02 07:57:06;;;;;;;5.43;5.00;;;3.70;79.40;;;;;;6296281;28;20224;-75
2024/01/02 08:00:15;;;;;;;5.13;4.70;;;3.80;79.40;;;;;;6309613;28;20629;-78
2024/01/02 08:03:19;;;;;;;6.60;5.30;;;3.80;79.40;;;;;;6303246;28;20240;-75
2024/01/02 08:06:22;;;;;;;7.90;5.70;;;3.70;79.30;;;;;;6290491;28;20237;-76
2024/01/02 08:09:25;;;;;;;12.03;6.13;;;3.70;79.50;;;;;;6297969;28;20243;-74
2024/01/02 08:12:29;;;;;;;7.93;7.13;;;3.80;79.50;;;;;;6303951;28;20232;-74
2024/01/02 08:15:33;;;;;;;6.73;5.50;;;3.90;79.50;;;;;;6301436;28;20245;-76
2024/01/02 08:18:44;;;;;;;6.23;5.37;;;3.90;79.50;;;;;;6302879;28;20324;-75
2024/01/02 08:21:47;;;;;;;9.50;6.00;;;3.90;79.40;;;;;;6301919;28;20224;-74
2024/01/02 08:24:51;;;;;;;13.93;5.87;;;3.90;79.40;;;;;;6309546;28;20320;-76
2024/01/02 08:27:54;;;;;;;6.50;5.87;;;3.90;79.30;;;;;;6298380;28;20226;-76
2024/01/02 08:30:58;;;;;;;7.20;5.30;;;3.90;79.40;;;;;;6303891;28;20363;-76
2024/01/02 08:34:02;;;;;;;5.97;5.10;;;3.90;79.60;;;;;;6291999;28;20256;-75
2024/01/02 08:37:06;;;;;;;6.37;5.10;;;3.90;79.30;;;;;;6307193;28;20305;-75
2024/01/02 08:40:11;;;;;;;5.60;5.17;;;3.90;79.70;;;;;;6305230;28;20228;-75
2024/01/02 08:43:16;;;;;;;8.63;5.33;;;3.90;79.80;;;;;;6300344;28;20236;-76
2024/01/02 08:46:20;;;;;;;10.33;5.60;;;3.90;79.70;;;;;;6284064;28;20251;-76
2024/01/02 08:49:23;;;;;;;7.13;5.17;;;4.00;79.80;;;;;;6301743;28;20297;-75
2024/01/02 08:52:26;;;;;;;8.83;5.97;;;3.90;80.10;;;;;;6309413;28;20267;-75
2024/01/02 08:55:30;;;;;;;6.37;5.77;;;4.00;80.00;;;;;;6308265;28;20299;-75
2024/01/02 08:58:33;;;;;;;6.87;5.33;;;4.10;80.00;;;;;;6308620;28;20236;-74
2024/01/02 09:01:38;;;;;;;9.13;5.87;;;4.20;79.80;;;;;;6303522;28;20333;-76
2024/01/02 09:04:43;;;;;;;6.17;5.03;;;4.20;79.90;;;;;;6300351;28;20237;-76
2024/01/02 09:07:47;;;;;;;5.97;5.33;;;4.20;80.20;;;;;;6311051;28;20236;-77
2024/01/02 09:10:51;;;;;;;6.07;5.53;;;4.20;80.50;;;;;;6300615;28;20266;-77
2024/01/02 09:13:54;;;;;;;8.07;5.17;;;4.20;80.50;;;;;;6300711;28;20314;-76
2024/01/02 09:16:58;;;;;;;10.43;5.13;;;4.20;80.70;;;;;;6290464;28;20232;-75
2024/01/02 09:20:03;;;;;;;9.40;5.13;;;4.20;80.70;;;;;;6297816;28;20249;-76
2024/01/02 09:23:06;;;;;;;6.20;4.80;;;4.30;81.00;;;;;;6311507;28;20225;-76
2024/01/02 09:26:13;;;;;;;6.13;4.97;;;4.30;81.30;;;;;;6308493;28;20709;-76
2024/01/02 09:29:17;;;;;;;9.70;5.80;;;4.30;81.40;;;;;;6305029;28;20758;-74
2024/01/02 09:32:22;;;;;;;5.33;4.93;;;4.30;81.70;;;;;;6305869;28;20237;-75
2024/01/02 09:35:25;;;;;;;8.57;5.30;;;4.40;81.80;;;;;;6301326;28;20889;-76
2024/01/02 09:38:29;;;;;;;9.43;5.33;;;4.40;81.80;;;;;;6306819;28;20233;-76
2024/01/02 09:42:00;;;;;;;6.30;5.70;;;4.40;82.00;;;;;;6311082;28;20749;-76
2024/01/02 09:45:10;;;;;;;5.60;5.03;;;4.50;81.90;;;;;;6300894;28;20237;-78
2024/01/02 09:48:32;;;;;;;7.93;5.13;;;4.50;81.90;;;;;;6312880;28;20241;-76
2024/01/02 09:51:44;;;;;;;5.43;4.77;;;4.40;82.30;;;;;;6302164;28;20240;-76
2024/01/02 09:54:57;;;;;;;8.17;5.03;;;4.50;82.20;;;;;;6300780;28;20240;-77
2024/01/02 09:58:14;;;;;;;6.03;5.37;;;4.40;82.40;;;;;;6302912;28;20241;-76
2024/01/02 10:01:25;;;;;;;5.37;4.87;;;4.40;82.40;;;;;;6300654;28;20241;-77
2024/01/02 10:04:51;;;;;;;6.00;5.70;;;4.50;82.60;;;;;;6292938;28;20622;-77
2024/01/02 10:08:25;;;;;;;5.80;5.30;;;4.40;82.70;;;;;;6304124;28;20232;-78
2024/01/02 10:11:38;;;;;;;7.53;5.80;;;4.50;82.80;;;;;;6298846;28;20680;-77
2024/01/02 10:14:49;;;;;;;6.77;5.70;;;4.50;82.70;;;;;;6302174;28;20233;-75
2024/01/02 10:17:58;;;;;;;6.07;5.67;;;4.40;83.20;;;;;;6291829;28;20245;-76
2024/01/02 10:21:11;;;;;;;5.40;5.00;;;4.50;83.30;;;;;;6301966;28;20247;-76
2024/01/02 10:24:34;;;;;;;5.80;5.27;;;4.50;83.50;;;;;;6302966;28;20236;-77
2024/01/02 10:27:46;;;;;;;5.90;5.30;;;4.50;83.40;;;;;;6301624;28;20251;-78
2024/01/02 10:30:57;;;;;;;5.70;5.10;;;4.50;83.30;;;;;;6307054;28;20244;-76
2024/01/02 10:34:07;;;;;;;5.27;4.87;;;4.60;83.20;;;;;;6302864;28;20309;-78
2024/01/02 10:37:14;;;;;;;5.03;4.70;;;4.50;83.20;;;;;;6305059;28;20235;-77
2024/01/02 10:40:23;;;;;;;4.50;4.20;;;4.50;83.20;;;;;;6302537;28;20759;-76
2024/01/02 10:43:28;;;;;;;7.30;5.07;;;4.50;83.40;;;;;;6301083;28;20230;-76
2024/01/02 10:46:38;;;;;;;7.27;5.20;;;4.60;83.50;;;;;;6299218;28;20252;-77
2024/01/02 10:49:50;;;;;;;5.67;5.27;;;4.70;83.50;;;;;;6304663;28;20317;-79
2024/01/02 10:53:08;;;;;;;7.33;5.27;;;4.70;83.60;;;;;;6298664;28;20244;-77
2024/01/02 10:56:15;;;;;;;5.20;4.80;;;4.70;83.30;;;;;;6307668;28;20241;-79
2024/01/02 10:59:34;;;;;;;6.03;4.93;;;4.70;83.30;;;;;;6324893;28;20282;-81
2024/01/02 11:02:45;;;;;;;5.13;4.63;;;4.90;83.30;;;;;;6301590;28;20371;-77
2024/01/02 11:05:57;;;;;;;5.47;5.07;;;4.80;83.20;;;;;;6310711;28;20255;-76
2024/01/02 11:09:08;;;;;;;5.20;4.80;;;4.90;83.10;;;;;;6306140;28;20229;-79
2024/01/02 11:12:12;;;;;;;5.10;4.80;;;4.90;83.00;;;;;;6306399;28;20763;-79
2024/01/02 11:15:21;;;;;;;5.77;5.17;;;4.90;82.70;;;;;;6302399;28;20228;-79
2024/01/02 11:18:25;;;;;;;5.40;5.10;;;4.90;82.80;;;;;;6302102;28;20279;-78
2024/01/02 11:21:38;;;;;;;5.30;5.00;;;4.90;82.80;;;;;;6298844;28;20240;-77
2024/01/02 11:24:48;;;;;;;5.83;5.43;;;4.90;83.00;;;;;;6307952;28;20911;-76
2024/01/02 11:27:53;;;;;;;5.67;5.20;;;4.80;83.20;;;;;;6311255;28;20233;-78
2024/01/02 11:30:58;;;;;;;6.07;5.47;;;4.70;83.30;;;;;;6300776;28;20240;-79
2024/01/02 11:34:09;;;;;;;6.10;5.47;;;4.90;83.40;;;;;;6301357;28;20233;-80
2024/01/02 11:37:22;;;;;;;5.83;5.43;;;4.90;83.50;;;;;;6304750;28;20233;-80
2024/01/02 11:40:32;;;;;;;5.57;5.20;;;5.00;83.40;;;;;;6298070;28;20233;-79
2024/01/02 11:43:45;;;;;;;5.70;5.27;;;5.00;83.10;;;;;;6293017;28;20237;-77
2024/01/02 11:46:54;;;;;;;5.00;4.80;;;5.00;83.00;;;;;;6297007;28;20332;-77
2024/01/02 11:50:03;;;;;;;5.60;5.20;;;5.10;82.70;;;;;;6294516;28;20909;-77
2024/01/02 11:53:18;;;;;;;6.20;5.70;;;5.00;82.80;;;;;;6295875;28;20244;-78
2024/01/02 11:56:24;;;;;;;5.60;5.10;;;5.00;82.90;;;;;;6308976;28;20316;-79
2024/01/02 11:59:38;;;;;;;5.90;5.40;;;5.00;82.80;;;;;;6298167;28;20261;-77
2024/01/02 12:02:57;;;;;;;5.83;5.30;;;5.00;82.80;;;;;;6301242;28;20241;-77
2024/01/02 12:06:06;;;;;;;5.03;4.83;;;5.00;82.60;;;;;;6302114;28;20267;-77
2024/01/02 12:09:14;;;;;;;5.47;5.17;;;5.00;82.60;;;;;;6304326;28;20876;-77
2024/01/02 12:12:28;;;;;;;5.10;4.87;;;5.00;82.60;;;;;;6304829;28;20236;-75
2024/01/02 12:15:41;;;;;;;6.60;5.93;;;5.00;82.70;;;;;;6301178;28;20722;-78
2024/01/02 12:18:49;;;;;;;6.63;6.23;;;5.00;82.90;;;;;;6304620;28;20244;-77
2024/01/02 12:21:56;;;;;;;5.67;5.47;;;5.00;82.90;;;;;;6305583;28;20247;-75
2024/01/02 12:25:01;;;;;;;5.57;5.27;;;5.00;82.80;;;;;;6302736;28;20252;-77
2024/01/02 12:28:06;;;;;;;6.07;5.63;;;5.10;82.70;;;;;;6304148;28;20323;-76
2024/01/02 12:31:17;;;;;;;5.30;5.10;;;5.00;82.80;;;;;;6302341;28;20241;-75
2024/01/02 12:34:26;;;;;;;5.80;5.40;;;5.00;83.00;;;;;;6309048;28;20245;-77
2024/01/02 12:37:38;;;;;;;5.90;5.43;;;5.10;83.00;;;;;;6301725;28;20243;-78
2024/01/02 12:40:45;;;;;;;6.20;5.80;;;5.10;83.00;;;;;;6297650;28;20387;-77
2024/01/02 12:43:53;;;;;;;6.63;6.13;;;5.10;83.00;;;;;;6299662;28;20237;-76
2024/01/02 12:47:06;;;;;;;6.57;6.07;;;5.10;83.10;;;;;;6299023;28;20714;-76
2024/01/02 12:50:09;;;;;;;6.30;5.93;;;5.10;83.20;;;;;;6310460;28;20224;-77
2024/01/02 12:53:16;;;;;;;6.63;6.10;;;5.10;83.20;;;;;;6296997;28;20224;-76
2024/01/02 12:56:25;;;;;;;6.13;5.77;;;5.10;83.40;;;;;;6305563;28;20225;-78
2024/01/02 12:59:33;;;;;;;6.97;6.40;;;5.10;83.40;;;;;;6310014;28;20244;-77
2024/01/02 13:02:37;;;;;;;6.93;5.97;;;5.20;83.40;;;;;;6310133;28;20224;-77
2024/01/02 13:05:41;;;;;;;7.13;6.43;;;5.10;83.40;;;;;;6308837;28;20255;-78
2024/01/02 13:08:45;;;;;;;6.23;5.83;;;5.10;83.60;;;;;;6305670;28;20723;-77
2024/01/02 13:11:49;;;;;;;5.93;5.63;;;5.20;83.50;;;;;;6304006;28;20312;-77
2024/01/02 13:14:55;;;;;;;6.00;5.60;;;5.20;83.60;;;;;;6313478;28;20798;-78
2024/01/02 13:17:59;;;;;;;5.50;5.10;;;5.20;83.50;;;;;;6314445;28;20317;-77
2024/01/02 13:21:04;;;;;;;6.23;5.73;;;5.30;83.40;;;;;;6313810;28;20244;-78
2024/01/02 13:24:09;;;;;;;5.83;5.33;;;5.30;83.40;;;;;;6303801;28;20315;-77
2024/01/02 13:27:14;;;;;;;5.77;5.30;;;5.10;83.30;;;;;;6308357;28;20286;-78
2024/01/02 13:30:18;;;;;;;5.97;5.57;;;5.30;83.40;;;;;;6311850;28;20236;-76
2024/01/02 13:33:22;;;;;;;5.50;5.30;;;5.20;83.40;;;;;;6306270;28;20267;-78
2024/01/02 13:36:25;;;;;;;5.37;4.93;;;5.20;83.60;;;;;;6304341;28;20225;-78
2024/01/02 13:39:32;;;;;;;5.63;5.20;;;5.20;83.50;;;;;;6306456;28;20233;-77
2024/01/02 13:42:36;;;;;;;5.70;5.27;;;5.30;83.40;;;;;;6306032;28;20326;-78
2024/01/02 13:45:41;;;;;;;5.60;5.03;;;5.30;83.30;;;;;;6297016;28;20289;-76
2024/01/02 13:48:53;;;;;;;5.97;5.67;;;5.30;83.20;;;;;;6313222;28;20228;-75
2024/01/02 13:51:56;;;;;;;6.17;5.87;;;5.30;83.40;;;;;;6306538;28;20229;-77
2024/01/02 13:55:00;;;;;;;6.23;5.73;;;5.30;83.40;;;;;;6306795;28;20241;-77
2024/01/02 13:58:11;;;;;;;6.00;5.63;;;5.20;83.50;;;;;;6309477;28;21655;-76
2024/01/02 14:01:15;;;;;;;5.83;5.50;;;5.20;83.60;;;;;;6305887;28;20237;-76
2024/01/02 14:04:22;;;;;;;6.17;5.77;;;5.30;83.60;;;;;;6311021;28;20313;-79
2024/01/02 14:07:25;;;;;;;6.10;5.60;;;5.30;83.40;;;;;;6313639;28;20267;-77
2024/01/02 14:10:30;;;;;;;5.73;5.43;;;5.30;83.40;;;;;;6296628;28;20355;-77
2024/01/02 14:13:35;;;;;;;5.40;5.10;;;5.30;83.30;;;;;;6305910;28;20232;-79
2024/01/02 14:16:39;;;;;;;6.07;5.67;;;5.30;83.30;;;;;;6313432;28;20293;-77
2024/01/02 14:19:46;;;;;;;6.57;6.13;;;5.30;83.40;;;;;;6308366;28;20234;-76
2024/01/02 14:22:58;;;;;;;6.63;6.20;;;5.30;83.30;;;;;;6303495;28;20371;-78
2024/01/02 14:26:06;;;;;;;6.03;5.63;;;5.30;83.50;;;;;;6302700;28;20294;-77
2024/01/02 14:29:15;;;;;;;6.10;5.80;;;5.10;83.80;;;;;;6297752;28;20693;-78
2024/01/02 14:32:30;;;;;;;6.00;5.73;;;5.30;83.90;;;;;;6296777;28;20280;-77
2024/01/02 14:35:40;;;;;;;6.83;6.43;;;5.30;83.70;;;;;;6295876;28;20271;-76
2024/01/02 14:39:05;;;;;;;6.77;6.23;;;5.20;84.10;;;;;;6299748;28;20221;-75
2024/01/02 14:42:25;;;;;;;6.10;5.80;;;5.20;84.20;;;;;;6294931;28;20240;-76
2024/01/02 14:45:33;;;;;;;6.53;6.20;;;5.30;84.20;;;;;;6301046;28;20237;-78
2024/01/02 14:48:53;;;;;;;6.17;5.83;;;5.20;84.10;;;;;;6303809;28;20228;-77
2024/01/02 14:52:12;;;;;;;6.60;6.20;;;5.20;84.20;;;;;;6312467;28;20701;-77
2024/01/02 14:55:24;;;;;;;6.50;6.20;;;5.30;84.30;;;;;;6298859;28;20244;-77
2024/01/02 14:58:36;;;;;;;7.17;6.50;;;5.20;84.40;;;;;;6303316;28;20245;-78
2024/01/02 15:01:52;;;;;;;7.17;6.77;;;5.20;84.40;;;;;;6311899;28;20228;-77
2024/01/02 15:05:06;;;;;;;6.33;6.13;;;5.20;84.50;;;;;;6305961;28;20338;-77
2024/01/02 15:08:15;;;;;;;7.23;6.63;;;5.30;84.30;;;;;;6300480;28;20602;-75
2024/01/02 15:11:32;;;;;;;6.80;6.20;;;5.30;84.50;;;;;;6311764;28;20224;-77
2024/01/02 15:14:51;;;;;;;6.47;6.07;;;5.30;84.50;;;;;;6306721;28;20289;-76
2024/01/02 15:18:17;;;;;;;7.10;6.50;;;5.30;84.40;;;;;;6300257;28;20224;-78
2024/01/02 15:21:30;;;;;;;6.97;6.47;;;5.30;84.30;;;;;;6310383;28;20233;-78
2024/01/02 15:24:40;;;;;;;6.70;6.37;;;5.30;84.50;;;;;;6304143;28;20278;-78
2024/01/02 15:27:51;;;;;;;7.43;6.97;;;5.30;84.50;;;;;;6302687;28;20427;-78
2024/01/02 15:30:58;;;;;;;7.90;7.40;;;5.30;84.70;;;;;;6305460;28;20229;-78
2024/01/02 15:34:10;;;;;;;7.43;7.00;;;5.30;84.70;;;;;;6303181;28;20611;-75
2024/01/02 15:37:30;;;;;;;6.80;6.33;;;5.30;84.60;;;;;;6305800;28;20720;-77
2024/01/02 15:40:36;;;;;;;7.00;6.60;;;5.30;84.70;;;;;;6292774;28;20241;-80
2024/01/02 15:43:42;;;;;;;7.70;7.10;;;5.30;84.80;;;;;;6309886;28;20236;-77
2024/01/02 15:47:09;;;;;;;6.90;6.60;;;5.30;85.00;;;;;;6304735;28;20287;-79
2024/01/02 15:50:22;;;;;;;8.13;7.57;;;5.20;85.30;;;;;;6313568;28;20228;-77
2024/01/02 15:53:36;;;;;;;8.80;8.10;;;5.20;85.30;;;;;;6310575;28;20243;-77
2024/01/02 15:56:44;;;;;;;7.43;6.93;;;5.30;85.30;;;;;;6307104;28;20228;-78
2024/01/02 16:00:03;;;;;;;8.00;7.50;;;5.20;85.50;;;;;;6304686;28;20255;-76
2024/01/02 16:03:43;;;;;;;7.13;6.73;;;5.20;85.60;;;;;;6308272;28;20857;-78
2024/01/02 16:07:28;;;;;;;7.63;7.27;;;5.20;85.70;;;;;;6296820;28;20311;-75
2024/01/02 16:10:53;;;;;;;8.37;7.83;;;5.30;85.50;;;;;;6311297;28;20808;-78
2024/01/02 16:14:35;;;;;;;7.73;7.33;;;5.20;85.70;;;;;;6302884;28;20229;-77
2024/01/02 16:18:03;;;;;;;7.77;7.20;;;5.30;85.80;;;;;;6291477;28;20241;-78
2024/01/02 16:21:22;;;;;;;7.37;6.97;;;5.30;85.70;;;;;;6303358;28;20229;-78
2024/01/02 16:24:50;;;;;;;6.67;6.37;;;5.30;85.80;;;;;;6298225;28;20237;-79